Iola, KS

2:43 PM CDT on July 07, 2015 (GMT -0500)
Casa Bravo | | Change Station
CLOSE
Current Station
Personal Weather Station
Location: Chanute, KS
Elevation: 998 ft
Nearby Weather Stations
Active Advisory: Flash Flood Watch

Elev 998 ft 37.67 °N, 95.47 °W | Updated 3 minutes ago

Rain
Rain
66.3 °F
Feels Like 66.3 °F
N
2.7
Wind Variable Wind from NNW

Today
High -- | Low -- °F
--% Chance of Precip.
Yesterday
High -- | Low -- °F
Precip. -- in
6:05 AM 8:46 PM
Waning Gibbous, 62% visible
Pressure 30.05 in
Visibility 2.5 miles
Clouds Few 1200 ft
Mostly Cloudy 1800 ft
Overcast 2200 ft
Dew Point 63 °F
Humidity 90%
Rainfall 0.20 in
Snow Depth Not available.
UV 3 out of 12
Pollen .50 out of 12
Air Quality Not available.
Flu Activity Not available.
SPECI KCNU 071938Z AUTO 05005KT 2 1/2SM HZ FEW012 BKN018 OVC022 20/17 A3005 RMK AO2 T02000172

More Conditions Fewer Conditions

Pressure 30.05 in
Visibility 2.5 miles
Clouds Few 1200 ft
Mostly Cloudy 1800 ft
Overcast 2200 ft
Dew Point 63 °F
Humidity 90%
Rainfall 0.20 in
Snow Depth Not available.
UV 3 out of 12
Pollen .50 out of 12
Air Quality Not available.
Flu Activity Not available.
SPECI KCNU 071938Z AUTO 05005KT 2 1/2SM HZ FEW012 BKN018 OVC022 20/17 A3005 RMK AO2 T02000172

More Conditions Fewer Conditions

10-Day Weather Forecast

×

Almanac

Astronomy

Jul. 07, 2015 Rise Set
Actual Time
Civil Twilight
Nautical Twilight
Astronomical Twilight
Moon
Length of Visible Light
Length of Day
Tomorrow will be .
, % of the Moon is Illuminated

Today's Extremes

State Highs State Lows

Community

WunderPhotos

Upload Photos

1,835,884 photos uploaded!

WunderBlogs® & News

Nearby

Air Quality

  Air Quality AQ Index Pollutant
Not available.

Snow Depth

Station Depth Elevation

Earthquake Activity

City Distance Mag. Time & Date
Minimum magnitude displayed is 2.5.

Coastal Water Temperatures

Place Temperature

Stations

Nearby Weather Stations

Station Location Temp. Windchill Dew Point Humidity Wind Precip. Elev Updated Type
                   
Flash Flood Watch
Statement as of 2:56 AM CDT on July 07, 2015

... Flash Flood Watch remains in effect through Wednesday
evening...

The Flash Flood Watch continues for

* a portion of southeast Kansas... including the following
areas... Allen... Chautauqua... Elk... Greenwood... Labette...
Montgomery... Neosho... Wilson and Woodson.

* Through Wednesday evening.

* Heavy rain is possible over southeast Kansas tonight and early
Wednesday. Additional rainfall amounts around 2 inches are
possible.

* Rivers and streams may rise with flash flooding a possibility.

Precautionary/preparedness actions...

A Flash Flood Watch means that conditions may develop that lead
to flash flooding. Flash flooding is a very dangerous situation.
Remember to turn around... don't drown.

You should monitor later forecasts and be prepared to take action
should flash flood warnings be issued.